• Join FlightAware (Why Join?)
  • Login
  • US Flag 
12:47AM EDT


 

Airport Tracker/Info


-or-


 

Live Flight TrackerFlight Track Log ✈ N130WW ✈ 05-Feb-2014 ✈ KRDU - KSYR

Flight Track Log - Related Links

Times and Time Zones

All times are in EST time to prevent confusion due to time zone crossing. See the N130WW flight status page for this flight to view local times or setup timezone preferences in your user account.

Time Position Orientation Groundspeed Altitude Reporting Facility
EST Latitude Longitude Course Direction KTS MPH feet Rate Location/Type
02:20PM 35.8542 -78.8083 237° Southwest 197 227 1,300  Level Washington Center
02:21PM 35.8344 -78.8458 237° Southwest 184 212 3,500 3,000 Climbing Washington Center
02:22PM 35.8558 -78.9031 295° West 214 246 6,500 2,400 Climbing Washington Center
02:23PM 35.9481 -78.8814 11° North 318 366 8,700 1,740 Climbing Washington Center
02:24PM 36.0044 -78.8014 49° Northeast 352 405 10,300 1,740 Climbing Washington Center
02:25PM 36.0778 -78.7197 42° Northeast 347 399 12,200 1,860 Climbing Washington Center
02:26PM 36.1750 -78.6694 23° Northeast 347 399 14,100 1,620 Climbing Washington Center
02:27PM 36.2697 -78.6372 15° North 346 398 15,500 1,440 Climbing Washington Center
02:28PM 36.3686 -78.6050 15° North 363 418 17,000 1,200 Climbing Washington Center
02:29PM 36.4631 -78.5775 13° North 368 423 18,000 1,140 Climbing Washington Center
02:30PM 36.5683 -78.5375 17° North 384 442 19,400 1,440 Climbing Washington Center
02:31PM 36.6906 -78.4903 17° North 396 456 20,900 1,320 Climbing Washington Center
02:32PM 36.8006 -78.4322 23° Northeast 407 468 22,100 1,200 Climbing Washington Center
02:33PM 36.9069 -78.3453 33° Northeast 430 495 23,400 1,200 Climbing Washington Center
02:34PM 37.0131 -78.2581 33° Northeast 450 518 24,600 1,200 Climbing Washington Center
02:35PM 37.1108 -78.1756 34° Northeast 465 535 25,800 1,260 Climbing Washington Center
02:36PM 37.2331 -78.1144 22° Northeast 436 502 27,200 1,260 Climbing Washington Center
02:37PM 37.3478 -78.1181 359° North 414 476 28,400 1,020 Climbing Washington Center
02:38PM 37.4625 -78.1272 356° North 409 471 29,300 900 Climbing Washington Center
02:39PM 37.5792 -78.1283 360° North 409 471 30,200 840 Climbing Washington Center
02:40PM 37.6958 -78.1375 356° North 409 471 31,000 840 Climbing Washington Center
02:41PM 37.8167 -78.1469 356° North 414 476 31,900 780 Climbing Washington Center
02:42PM 37.9353 -78.1536 357° North 425 489 32,700 780 Climbing Washington Center
02:43PM 38.0561 -78.1603 358° North 425 489 33,600 840 Climbing Washington Center
02:44PM 38.1728 -78.1697 356° North 419 482 34,500 660 Climbing Washington Center
02:45PM 38.2914 -78.1764 357° North 419 482 35,000 420 Climbing Washington Center
02:46PM 38.4122 -78.1831 358° North 424 488 35,400 420 Climbing Washington Center
02:47PM 38.5331 -78.1875 358° North 424 488 35,900 420 Climbing Washington Center
02:48PM 38.6539 -78.1942 358° North 424 488 36,300 420 Climbing Washington Center
02:49PM 38.7794 -78.1694 North 437 503 36,800 300 Climbing Washington Center
02:50PM 38.9097 -78.1258 15° North 454 522 37,000 60 Climbing Washington Center
02:51PM 39.0272 -78.0872 14° North 466 536 37,000  Level Washington Center
02:52PM 39.1636 -78.0439 14° North 483 556 37,000  Level Washington Center
02:54PM 39.4572 -77.9458 14° North 509 586 37,000  Level New York Center
02:55PM 39.5936 -77.9003 14° North 499 574 37,000  Level New York Center
02:56PM 39.7297 -77.8547 14° North 499 574 37,000  Level New York Center
02:57PM 39.8642 -77.8061 16° North 504 580 37,000 -600 Level New York Center
02:58PM 40.0000 -77.7628 14° North 499 574 35,900 -1,080 Descending New York Center
02:59PM 40.1217 -77.7181 16° North 499 574 34,900 -1,200 Descending New York Center
03:00PM 40.2514 -77.6739 15° North 499 574 33,500 -1,740 Descending New York Center
03:01PM 40.3875 -77.6275 15° North 499 574 31,500 -1,980 Descending New York Center
03:02PM 40.5236 -77.5808 15° North 499 574 29,600 -1,800 Descending New York Center
03:03PM 40.6600 -77.5314 15° North 504 580 27,900 -1,800 Descending New York Center
03:04PM 40.7983 -77.4819 15° North 504 580 26,100 -1,500 Descending New York Center
03:05PM 40.9383 -77.4381 13° North 504 580 25,000 -780 Descending New York Center
03:06PM 41.0847 -77.3892 14° North 509 586 24,600 -780 Descending New York Center
03:07PM 41.2317 -77.3344 16° North 516 594 23,500 -840 Descending New York Center
03:08PM 41.3606 -77.2642 22° Northeast 504 580 23,000 -300 Descending New York Center
03:09PM 41.4900 -77.1822 25° Northeast 504 580 23,000  Level New York Center
03:10PM 41.6172 -77.1003 26° Northeast 504 580 23,000 -420 Level New York Center
03:11PM 41.7439 -77.0289 23° Northeast 498 573 22,200 -900 Descending New York Center
03:12PM 41.8617 -76.9675 21° North 479 551 21,300 -1,080 Descending New York Center
03:13PM 41.9753 -76.9056 22° Northeast 452 520 20,100 -1,500 Descending New York Center
03:14PM 42.0761 -76.8478 23° Northeast 440 506 18,400 -2,040 Descending New York Center
03:15PM 42.1836 -76.7822 24° Northeast 426 490 16,100 -2,160 Descending New York Center
03:16PM 42.2886 -76.7217 23° Northeast 420 483 14,100 -1,920 Descending New York Center
03:17PM 42.3892 -76.6633 23° Northeast 415 478 12,300 -1,560 Descending New York Center
03:18PM 42.4878 -76.6103 22° Northeast 392 451 11,000 -540 Descending New York Center
03:20PM 42.6147 -76.5331 24° Northeast 359 413 11,000 -300 Level Boston Center
03:21PM 42.7058 -76.4800 23° Northeast 359 413 10,400 -1,200 Descending Boston Center
03:21PM 42.7750 -76.4383 24° Northeast 356 410 9,000 -1,740 Descending Boston Center
03:22PM 42.7947 -76.4339 North 347 399 8,600 -1,920 Descending Boston Center
03:22PM 42.8603 -76.4278 North 269 310 7,100 -1,980 Descending Boston Center
03:23PM 42.8867 -76.4264 North 281 323 6,600 -1,620 Descending Boston Center
03:23PM 42.9331 -76.4278 359° North 258 297 5,500 -1,680 Descending Boston Center
03:24PM 42.9594 -76.4297 357° North 265 305 5,000 -540 Descending Boston Center
03:24PM 43.0044 -76.4361 354° North 260 299 5,000  Level Boston Center
03:25PM 43.0314 -76.4394 355° North 261 300 5,000  Level Boston Center
03:25PM 43.0717 -76.4431 356° North 224 258 5,000 -300 Level Boston Center
03:26PM 43.1067 -76.4422 North 237 273 4,700 -1,380 Descending Boston Center
03:26PM 43.1275 -76.4172 41° Northeast 222 255 3,700 -1,260 Descending Boston Center
03:27PM 43.1200 -76.3783 105° East 213 245 3,400 -300 Descending Boston Center
03:27PM 43.1106 -76.3533 117° Southeast 161 185 3,400 -720 Level Boston Center
03:28PM 43.1031 -76.3244 110° East 179 206 2,700 -1,020 Descending Boston Center
03:28PM 43.1031 -76.2983 90° East 147 169 2,400 -300 Descending Boston Center
03:29PM 43.1011 -76.2675 95° East 161 185 2,400 -240 Level Boston Center
03:29PM 43.1044 -76.2403 80° East 148 170 2,200 -600 Descending Boston Center
03:30PM 43.1044 -76.2125 90° East 153 176 1,800 -840 Descending Boston Center
03:30PM 43.1053 -76.1850 88° East 135 155 1,400 -840 Descending Boston Center
03:31PM 43.1069 -76.1642 84° East 141 162 1,000 -660 Descending Boston Center
03:32PM 43.1086 -76.1186 87° East 130 150 400 -600 Descending Boston Center